Time;durP1;ratioP1;P1;durP2;ratioP2;P2;SDS_P1;SDS_P2;PMS_P1;PMS_P2;Temp;Humidity;BMP_temperature;BMP_pressure;BME280_temperature;BME280_humidity;BME280_pressure;Samples;Min_cycle;Max_cycle;Signal;HPM_P1;HPM_P2
2023/09/21 00:01:10;;;;;;;2.70;2.10;;;17.50;1.00;;;;;;5010637;28;20494;-84
2023/09/21 00:03:36;;;;;;;3.00;2.35;;;17.50;1.00;;;;;;5019112;28;20428;-84
2023/09/21 00:06:05;;;;;;;1.98;1.80;;;17.50;1.00;;;;;;5013266;28;20392;-84
2023/09/21 00:08:31;;;;;;;4.40;2.07;;;17.50;1.00;;;;;;5011453;28;20389;-85
2023/09/21 00:11:04;;;;;;;3.72;2.38;;;17.50;1.00;;;;;;5011664;28;20947;-84
2023/09/21 00:13:31;;;;;;;2.95;2.10;;;17.40;1.00;;;;;;4998891;28;20405;-84
2023/09/21 00:16:02;;;;;;;3.30;1.80;;;17.30;1.00;;;;;;5013067;28;20886;-85
2023/09/21 00:18:29;;;;;;;2.88;2.10;;;17.20;1.00;;;;;;5010951;28;20915;-85
2023/09/21 00:20:55;;;;;;;4.30;2.20;;;17.20;1.00;;;;;;5025437;28;20391;-83
2023/09/21 00:23:25;;;;;;;3.20;2.30;;;17.40;1.00;;;;;;5027370;28;20411;-83
2023/09/21 00:25:57;;;;;;;2.10;1.90;;;17.30;1.00;;;;;;5012708;28;20401;-83
2023/09/21 00:28:23;;;;;;;2.50;2.20;;;17.30;1.00;;;;;;5010821;28;20393;-84
2023/09/21 00:30:53;;;;;;;3.50;2.30;;;17.30;1.00;;;;;;5003115;28;20406;-84
2023/09/21 00:33:19;;;;;;;2.30;2.05;;;17.30;1.00;;;;;;4994261;28;20474;-84
2023/09/21 00:35:45;;;;;;;4.30;2.45;;;17.20;1.00;;;;;;5012430;28;20437;-84
2023/09/21 00:38:14;;;;;;;4.07;2.30;;;17.20;1.00;;;;;;5005167;28;20391;-84
2023/09/21 00:40:42;;;;;;;2.80;2.30;;;17.30;1.00;;;;;;4999816;28;20431;-84
2023/09/21 00:43:09;;;;;;;6.70;2.30;;;17.40;1.00;;;;;;5013264;28;20408;-83
2023/09/21 00:45:37;;;;;;;2.95;2.33;;;17.40;1.00;;;;;;5011921;28;20547;-84
2023/09/21 00:48:04;;;;;;;3.25;2.05;;;17.50;1.00;;;;;;5012630;28;20435;-83
2023/09/21 00:50:31;;;;;;;2.17;1.97;;;17.50;1.00;;;;;;5008521;28;20396;-84
2023/09/21 00:52:56;;;;;;;2.40;2.20;;;17.40;1.00;;;;;;4990905;28;20395;-84
2023/09/21 00:55:28;;;;;;;2.17;1.97;;;17.40;1.00;;;;;;4992457;28;20900;-84
2023/09/21 00:57:57;;;;;;;3.70;2.58;;;17.30;1.00;;;;;;4991012;28;20478;-84
2023/09/21 01:00:25;;;;;;;2.45;2.20;;;17.40;1.00;;;;;;4993479;28;20449;-84
2023/09/21 01:02:53;;;;;;;2.30;2.08;;;17.30;1.00;;;;;;5030804;28;20392;-84
2023/09/21 01:05:21;;;;;;;2.17;1.95;;;17.50;1.00;;;;;;5032201;28;20385;-83
2023/09/21 01:07:50;;;;;;;1.95;1.77;;;17.50;1.00;;;;;;5029262;28;20412;-83
2023/09/21 01:10:21;;;;;;;2.40;2.20;;;17.50;1.00;;;;;;5006087;28;20835;-83
2023/09/21 01:12:51;;;;;;;2.88;2.40;;;17.60;1.00;;;;;;4990921;28;23153;-83
2023/09/21 01:15:18;;;;;;;2.38;2.00;;;17.60;1.00;;;;;;4998950;28;20410;-85
2023/09/21 01:17:47;;;;;;;3.67;2.20;;;17.60;1.00;;;;;;5010390;28;20561;-83
2023/09/21 01:20:27;;;;;;;2.60;2.30;;;17.70;1.00;;;;;;5031022;28;20521;-83
2023/09/21 01:23:11;;;;;;;2.20;2.00;;;17.50;1.00;;;;;;5005697;28;20480;-84
2023/09/21 01:25:40;;;;;;;2.20;2.00;;;17.50;1.00;;;;;;4993826;28;20930;-83
2023/09/21 01:28:11;;;;;;;5.50;2.10;;;17.50;1.00;;;;;;4995943;28;20398;-84
2023/09/21 01:30:38;;;;;;;2.00;1.80;;;17.50;1.00;;;;;;4998115;28;20830;-84
2023/09/21 01:33:11;;;;;;;2.30;2.00;;;17.40;1.00;;;;;;4991491;28;20410;-84
2023/09/21 01:35:43;;;;;;;2.15;1.92;;;17.40;1.00;;;;;;4992694;28;20390;-84
2023/09/21 01:38:09;;;;;;;3.42;2.40;;;17.40;1.00;;;;;;5010357;28;20396;-83
2023/09/21 01:40:36;;;;;;;2.90;2.10;;;17.40;1.00;;;;;;5011049;28;20396;-84
2023/09/21 01:43:09;;;;;;;3.00;2.20;;;17.40;1.00;;;;;;5012180;28;20397;-83
2023/09/21 01:45:37;;;;;;;4.00;2.40;;;17.40;1.00;;;;;;4996988;28;20480;-84
2023/09/21 01:48:08;;;;;;;3.40;2.22;;;17.30;1.00;;;;;;4992072;28;20397;-83
2023/09/21 01:50:40;;;;;;;2.38;2.13;;;17.40;1.00;;;;;;4990606;28;20394;-84
2023/09/21 01:53:10;;;;;;;3.80;2.13;;;17.40;1.00;;;;;;4990639;28;20517;-84
2023/09/21 01:55:39;;;;;;;3.20;2.45;;;17.40;1.00;;;;;;5004780;28;20446;-84
2023/09/21 01:58:06;;;;;;;3.77;2.30;;;17.40;1.00;;;;;;4999237;28;20402;-84
2023/09/21 02:00:35;;;;;;;2.50;2.13;;;17.50;1.00;;;;;;4993669;28;20398;-84
2023/09/21 02:03:06;;;;;;;2.50;2.20;;;17.40;1.00;;;;;;4991426;28;20399;-84
2023/09/21 02:05:33;;;;;;;2.63;2.00;;;17.40;1.00;;;;;;4992027;28;20909;-84
2023/09/21 02:07:59;;;;;;;2.53;2.08;;;17.40;1.00;;;;;;4998818;28;20405;-84
2023/09/21 02:10:25;;;;;;;5.40;2.53;;;17.40;1.00;;;;;;4994472;28;20414;-83
2023/09/21 02:12:55;;;;;;;2.50;2.30;;;17.40;1.00;;;;;;5007421;28;20453;-83
2023/09/21 02:15:21;;;;;;;2.50;2.30;;;17.60;1.00;;;;;;5001833;28;20405;-84
2023/09/21 02:17:46;;;;;;;2.80;2.20;;;17.40;1.00;;;;;;4996557;28;20399;-84
2023/09/21 02:20:16;;;;;;;2.40;2.20;;;17.40;1.00;;;;;;5022623;28;20391;-84
2023/09/21 02:22:49;;;;;;;3.00;2.35;;;17.40;1.00;;;;;;5023492;28;20400;-84
2023/09/21 02:25:16;;;;;;;2.92;1.92;;;17.50;1.00;;;;;;5021265;28;20887;-83
2023/09/21 02:27:45;;;;;;;2.30;1.80;;;17.50;1.00;;;;;;5013493;28;20417;-84
2023/09/21 02:30:13;;;;;;;3.10;2.22;;;17.30;1.00;;;;;;5013617;28;20389;-84
2023/09/21 02:32:40;;;;;;;2.50;2.30;;;17.40;1.00;;;;;;5005354;28;20406;-84
2023/09/21 02:35:08;;;;;;;5.80;2.50;;;17.40;1.00;;;;;;5012971;28;20465;-84
2023/09/21 02:37:35;;;;;;;4.00;2.20;;;17.40;1.00;;;;;;5013255;28;20391;-83
2023/09/21 02:40:01;;;;;;;2.50;2.20;;;17.50;1.00;;;;;;5013071;28;20381;-84
2023/09/21 02:42:28;;;;;;;3.40;2.00;;;17.20;1.00;;;;;;5011094;28;20390;-84
2023/09/21 02:44:55;;;;;;;2.60;2.40;;;17.50;1.00;;;;;;5054025;23;20435;-84
2023/09/21 02:47:21;;;;;;;3.72;2.42;;;17.50;1.00;;;;;;5015829;28;20381;-84
2023/09/21 02:49:47;;;;;;;3.70;2.10;;;17.40;1.00;;;;;;5014944;28;20388;-84
2023/09/21 02:52:13;;;;;;;3.10;2.47;;;17.50;1.00;;;;;;5016180;28;20737;-84
2023/09/21 02:54:39;;;;;;;2.40;2.20;;;17.40;1.00;;;;;;5020478;28;20413;-84
2023/09/21 02:57:05;;;;;;;2.10;1.90;;;17.40;1.00;;;;;;5020738;28;20393;-84
2023/09/21 02:59:31;;;;;;;2.63;2.43;;;17.40;1.00;;;;;;5015246;28;20397;-84
2023/09/21 03:01:56;;;;;;;2.30;2.10;;;17.60;1.00;;;;;;5016717;28;20399;-84
2023/09/21 03:04:22;;;;;;;3.83;2.10;;;17.30;1.00;;;;;;5014003;28;20392;-84
2023/09/21 03:06:48;;;;;;;2.42;2.10;;;17.40;1.00;;;;;;4997520;28;20434;-84
2023/09/21 03:09:14;;;;;;;2.20;2.00;;;17.40;1.00;;;;;;4996267;28;20390;-84
2023/09/21 03:11:40;;;;;;;2.90;2.70;;;17.30;1.00;;;;;;4994208;28;20423;-84
2023/09/21 03:14:05;;;;;;;5.00;2.30;;;17.30;1.00;;;;;;4994575;28;20446;-84
2023/09/21 03:16:32;;;;;;;2.50;2.30;;;17.40;1.00;;;;;;5011440;28;20408;-84
2023/09/21 03:18:58;;;;;;;2.22;2.03;;;17.30;1.00;;;;;;5012948;28;20389;-84
2023/09/21 03:21:24;;;;;;;3.72;2.30;;;17.20;1.00;;;;;;5027662;28;20406;-84
2023/09/21 03:23:52;;;;;;;2.90;2.20;;;17.40;1.00;;;;;;5035358;28;20477;-84
2023/09/21 03:26:18;;;;;;;2.95;2.13;;;17.20;1.00;;;;;;5034833;28;20387;-84
2023/09/21 03:28:45;;;;;;;3.70;2.40;;;17.20;1.00;;;;;;5035382;28;20682;-84
2023/09/21 03:31:15;;;;;;;2.65;2.30;;;17.20;1.00;;;;;;5014988;28;20500;-84
2023/09/21 03:33:41;;;;;;;2.72;2.22;;;17.20;1.00;;;;;;5014814;28;20808;-84
2023/09/21 03:36:13;;;;;;;5.50;2.50;;;17.20;1.00;;;;;;4999187;28;20401;-84
2023/09/21 03:38:39;;;;;;;2.30;2.10;;;17.30;1.00;;;;;;5006952;28;20483;-84
2023/09/21 03:41:05;;;;;;;4.28;2.95;;;17.30;1.00;;;;;;5005523;28;20398;-84
2023/09/21 03:43:30;;;;;;;4.37;2.40;;;17.30;1.00;;;;;;4995466;28;20397;-84
2023/09/21 03:45:56;;;;;;;2.40;2.20;;;17.30;1.00;;;;;;4996556;28;20410;-84
2023/09/21 03:48:21;;;;;;;2.70;2.50;;;17.40;1.00;;;;;;5005937;28;20389;-84
2023/09/21 03:50:52;;;;;;;3.17;2.40;;;17.30;1.00;;;;;;5013992;28;20805;-84
2023/09/21 03:53:17;;;;;;;4.45;2.42;;;17.30;1.00;;;;;;5002214;28;20414;-84
2023/09/21 03:55:43;;;;;;;2.80;2.40;;;17.30;1.00;;;;;;4995037;28;20402;-84
2023/09/21 03:58:10;;;;;;;4.47;2.30;;;17.30;1.00;;;;;;4995253;28;20445;-84
2023/09/21 04:00:36;;;;;;;2.42;2.20;;;17.30;1.00;;;;;;4995569;28;20399;-84
2023/09/21 04:03:10;;;;;;;2.35;2.15;;;17.40;1.00;;;;;;4999168;28;20497;-85
2023/09/21 04:05:39;;;;;;;3.50;2.10;;;17.20;1.00;;;;;;4993968;28;20429;-85
2023/09/21 04:08:05;;;;;;;4.10;2.00;;;16.90;1.00;;;;;;4994729;28;20546;-84
2023/09/21 04:10:31;;;;;;;3.75;2.40;;;17.30;1.00;;;;;;4996514;28;20398;-84
2023/09/21 04:12:57;;;;;;;2.53;2.30;;;17.30;1.00;;;;;;4997181;28;20934;-84
2023/09/21 04:15:27;;;;;;;2.40;2.20;;;17.20;1.00;;;;;;5013592;28;20504;-84
2023/09/21 04:17:54;;;;;;;4.10;2.40;;;17.20;1.00;;;;;;5015391;28;20420;-84
2023/09/21 04:20:21;;;;;;;2.47;1.98;;;17.30;1.00;;;;;;5010549;28;20406;-84
2023/09/21 04:22:49;;;;;;;2.75;2.40;;;17.40;1.00;;;;;;5001098;28;20398;-85
2023/09/21 04:25:16;;;;;;;2.60;2.40;;;17.30;1.00;;;;;;5001618;28;20390;-85
2023/09/21 04:27:44;;;;;;;3.10;2.33;;;17.30;1.00;;;;;;5004046;28;20480;-83
2023/09/21 04:30:14;;;;;;;4.28;2.45;;;17.30;1.00;;;;;;5018966;28;20388;-84
2023/09/21 04:32:45;;;;;;;3.10;2.40;;;17.30;1.00;;;;;;5008596;28;20891;-85
2023/09/21 04:35:11;;;;;;;4.40;2.00;;;17.30;1.00;;;;;;4998599;28;20759;-85
2023/09/21 04:37:40;;;;;;;3.03;2.28;;;17.20;1.00;;;;;;5002072;28;20390;-83
2023/09/21 04:40:10;;;;;;;4.10;2.50;;;17.30;1.00;;;;;;5000089;28;20394;-84
2023/09/21 04:42:38;;;;;;;3.35;2.00;;;17.30;1.00;;;;;;5008658;28;20408;-84
2023/09/21 04:45:09;;;;;;;3.20;2.03;;;17.30;1.00;;;;;;5021322;28;20457;-84
2023/09/21 04:47:39;;;;;;;3.05;2.47;;;17.20;1.00;;;;;;5013742;28;20422;-84
2023/09/21 04:50:05;;;;;;;2.97;2.28;;;17.20;1.00;;;;;;5003145;28;20441;-84
2023/09/21 04:52:33;;;;;;;3.30;2.33;;;17.20;1.00;;;;;;5033368;28;20405;-83
2023/09/21 04:54:59;;;;;;;2.60;2.40;;;17.20;1.00;;;;;;5030994;28;20413;-84
2023/09/21 04:57:27;;;;;;;3.30;2.60;;;17.20;1.00;;;;;;5032148;28;20451;-84
2023/09/21 04:59:54;;;;;;;3.03;2.35;;;17.20;1.00;;;;;;5032518;28;20389;-84
2023/09/21 05:02:19;;;;;;;3.40;2.08;;;17.20;1.00;;;;;;5028359;28;20814;-84
2023/09/21 05:04:45;;;;;;;3.90;2.53;;;17.20;1.00;;;;;;5032873;28;20387;-84
2023/09/21 05:07:13;;;;;;;2.30;2.08;;;17.20;1.00;;;;;;5023687;28;20396;-84
2023/09/21 05:09:40;;;;;;;2.53;2.30;;;17.20;1.00;;;;;;5017821;28;20416;-84
2023/09/21 05:12:06;;;;;;;3.05;2.40;;;17.20;1.00;;;;;;5018683;28;20442;-83
2023/09/21 05:14:32;;;;;;;2.90;2.70;;;17.20;1.00;;;;;;5017976;28;20409;-84
2023/09/21 05:16:58;;;;;;;4.00;2.50;;;17.20;1.00;;;;;;5018204;28;20840;-84
2023/09/21 05:19:24;;;;;;;2.80;2.47;;;17.20;1.00;;;;;;5021487;28;20398;-84
2023/09/21 05:21:50;;;;;;;3.42;2.40;;;17.20;1.00;;;;;;5037965;28;20379;-84
2023/09/21 05:24:16;;;;;;;2.30;2.15;;;17.20;1.00;;;;;;5030140;28;20392;-84
2023/09/21 05:26:42;;;;;;;3.10;2.30;;;17.20;1.00;;;;;;4995153;28;21158;-84
2023/09/21 05:29:08;;;;;;;3.10;2.45;;;17.20;1.00;;;;;;4999244;28;20803;-84
2023/09/21 05:31:35;;;;;;;2.67;2.47;;;16.80;1.00;;;;;;4992864;28;20386;-84
2023/09/21 05:34:02;;;;;;;2.40;2.20;;;17.40;1.00;;;;;;4995575;28;20409;-83
2023/09/21 05:36:29;;;;;;;4.20;2.75;;;17.40;1.00;;;;;;5015475;28;20412;-83
2023/09/21 05:38:55;;;;;;;2.45;2.08;;;17.40;1.00;;;;;;5019006;28;20389;-84
2023/09/21 05:41:21;;;;;;;3.60;2.47;;;18.00;1.00;;;;;;5010454;28;20460;-84
2023/09/21 05:43:46;;;;;;;3.10;2.33;;;17.40;1.00;;;;;;5012857;28;20454;-84
2023/09/21 05:46:12;;;;;;;3.25;2.55;;;17.40;1.00;;;;;;5014562;28;20461;-84
2023/09/21 05:48:38;;;;;;;2.63;2.43;;;17.50;1.00;;;;;;5012296;28;20736;-84
2023/09/21 05:51:04;;;;;;;3.30;2.60;;;17.50;1.00;;;;;;5002771;28;20412;-84
2023/09/21 05:53:31;;;;;;;2.78;2.58;;;17.50;1.00;;;;;;5015747;28;20405;-84
2023/09/21 05:55:57;;;;;;;3.10;2.80;;;18.70;1.00;;;;;;5001418;28;20406;-84
2023/09/21 05:58:23;;;;;;;2.53;2.30;;;17.60;1.00;;;;;;4998628;28;20390;-84
2023/09/21 06:00:49;;;;;;;4.00;2.60;;;17.70;1.00;;;;;;4997097;28;20383;-84
2023/09/21 06:03:15;;;;;;;2.60;2.40;;;17.60;1.00;;;;;;4999863;28;20393;-84
2023/09/21 06:05:43;;;;;;;2.60;2.40;;;16.80;1.00;;;;;;5000435;28;20462;-85
2023/09/21 06:08:08;;;;;;;2.80;2.60;;;17.70;1.00;;;;;;5001521;28;20393;-84
2023/09/21 06:10:35;;;;;;;2.50;2.30;;;17.70;1.00;;;;;;4999273;28;20774;-84
2023/09/21 06:13:07;;;;;;;2.58;2.38;;;17.70;1.00;;;;;;5010284;28;20396;-84
2023/09/21 06:15:33;;;;;;;3.70;2.38;;;17.70;1.00;;;;;;5024041;28;20460;-85
2023/09/21 06:17:58;;;;;;;3.60;2.37;;;17.70;1.00;;;;;;5014382;28;20428;-84
2023/09/21 06:20:26;;;;;;;3.03;2.37;;;17.20;1.00;;;;;;5025985;28;20455;-85
2023/09/21 06:22:52;;;;;;;3.72;2.60;;;17.70;1.00;;;;;;5043699;28;20408;-84
2023/09/21 06:25:20;;;;;;;3.00;2.53;;;17.70;1.00;;;;;;5033522;28;20418;-84
2023/09/21 06:27:46;;;;;;;3.10;2.30;;;17.70;1.00;;;;;;5018404;28;20422;-84
2023/09/21 06:30:12;;;;;;;3.05;2.53;;;17.90;1.00;;;;;;4994247;28;20485;-85
2023/09/21 06:32:39;;;;;;;3.40;2.60;;;17.80;1.00;;;;;;4997981;28;20382;-84
2023/09/21 06:35:07;;;;;;;3.55;2.10;;;17.90;1.00;;;;;;5003485;28;20414;-85
2023/09/21 06:37:36;;;;;;;4.00;2.40;;;17.80;1.00;;;;;;5019646;28;20389;-84
2023/09/21 06:40:02;;;;;;;3.00;2.50;;;17.80;1.00;;;;;;5019227;28;20389;-84
2023/09/21 06:42:28;;;;;;;2.63;2.42;;;17.90;1.00;;;;;;5020333;28;20396;-85
2023/09/21 06:44:54;;;;;;;2.90;2.70;;;17.90;1.00;;;;;;5027059;28;20427;-85
2023/09/21 06:47:22;;;;;;;2.70;2.50;;;18.00;1.00;;;;;;5014380;28;20953;-85
2023/09/21 06:49:53;;;;;;;4.22;2.72;;;18.00;1.00;;;;;;5012896;28;20385;-85
2023/09/21 06:52:19;;;;;;;3.93;2.60;;;18.10;1.00;;;;;;5008710;28;20438;-85
2023/09/21 06:54:45;;;;;;;4.60;3.00;;;18.10;1.00;;;;;;5017698;28;20491;-85
2023/09/21 06:57:11;;;;;;;3.67;2.60;;;18.20;1.00;;;;;;5020178;28;20393;-85
2023/09/21 06:59:38;;;;;;;3.70;2.65;;;18.20;1.00;;;;;;5019859;28;20395;-85
2023/09/21 07:02:04;;;;;;;3.20;2.60;;;18.30;1.00;;;;;;5019896;28;20448;-85
2023/09/21 07:04:33;;;;;;;3.20;2.88;;;18.40;1.00;;;;;;5018540;28;20413;-84
2023/09/21 07:07:05;;;;;;;4.22;2.90;;;18.40;1.00;;;;;;5019739;28;20408;-85
2023/09/21 07:09:35;;;;;;;3.70;3.13;;;18.40;1.00;;;;;;5010159;28;20571;-84
2023/09/21 07:12:02;;;;;;;3.05;2.70;;;18.40;1.00;;;;;;4996220;28;20395;-85
2023/09/21 07:14:28;;;;;;;2.60;2.40;;;18.40;1.00;;;;;;4995551;28;20438;-84
2023/09/21 07:16:55;;;;;;;4.68;3.10;;;18.40;1.00;;;;;;4996757;28;20419;-85
2023/09/21 07:19:20;;;;;;;2.80;2.60;;;18.40;1.00;;;;;;5005606;28;20397;-85
2023/09/21 07:21:46;;;;;;;6.73;3.40;;;18.40;1.00;;;;;;5034835;28;20386;-85
2023/09/21 07:24:11;;;;;;;3.03;2.45;;;18.30;1.00;;;;;;5039528;28;20417;-85
2023/09/21 07:26:37;;;;;;;3.97;2.47;;;18.50;1.00;;;;;;5036602;28;20391;-85
2023/09/21 07:29:05;;;;;;;2.83;2.40;;;18.20;1.00;;;;;;5027604;28;20490;-85
2023/09/21 07:31:33;;;;;;;4.70;3.25;;;18.60;1.00;;;;;;5018826;28;20896;-85
2023/09/21 07:33:59;;;;;;;5.32;3.00;;;18.80;1.00;;;;;;5016106;28;20467;-85
2023/09/21 07:36:24;;;;;;;3.22;2.95;;;18.80;1.00;;;;;;5016321;28;20385;-84
2023/09/21 07:38:53;;;;;;;4.90;2.60;;;18.90;1.00;;;;;;4999254;28;20849;-84
2023/09/21 07:41:19;;;;;;;3.08;2.60;;;19.10;1.00;;;;;;4995172;28;20394;-84
2023/09/21 07:43:45;;;;;;;3.60;2.50;;;18.70;1.00;;;;;;4996089;28;20962;-84
2023/09/21 07:46:11;;;;;;;2.90;2.50;;;19.30;1.00;;;;;;4996188;28;20434;-84
2023/09/21 07:48:36;;;;;;;2.88;2.50;;;19.40;1.00;;;;;;5008633;28;20473;-84
2023/09/21 07:51:06;;;;;;;3.60;3.00;;;19.50;1.00;;;;;;5018646;28;20419;-84
2023/09/21 07:53:32;;;;;;;3.63;2.70;;;19.60;1.00;;;;;;5016830;28;20428;-85
2023/09/21 07:56:10;;;;;;;5.93;4.20;;;19.70;1.00;;;;;;5013519;28;20377;-84
2023/09/21 07:58:35;;;;;;;3.00;2.70;;;19.70;1.00;;;;;;4994482;28;20510;-84
2023/09/21 08:01:01;;;;;;;6.05;2.70;;;19.70;1.00;;;;;;4997322;28;20391;-84
2023/09/21 08:03:26;;;;;;;3.10;2.80;;;19.80;1.00;;;;;;4994828;28;20405;-84
2023/09/21 08:05:53;;;;;;;2.50;2.30;;;19.90;1.00;;;;;;4995257;28;20390;-84
2023/09/21 08:08:19;;;;;;;3.88;2.90;;;20.00;1.00;;;;;;5005398;28;20424;-84
2023/09/21 08:10:44;;;;;;;3.20;2.70;;;20.00;1.00;;;;;;5012749;28;20957;-85
2023/09/21 08:13:10;;;;;;;2.70;2.50;;;20.10;1.00;;;;;;5012098;28;20410;-85
2023/09/21 08:15:36;;;;;;;3.45;2.70;;;20.20;1.00;;;;;;5011562;28;20409;-84
2023/09/21 08:18:02;;;;;;;2.50;2.30;;;20.30;1.00;;;;;;5011954;28;20398;-84
2023/09/21 08:20:28;;;;;;;4.07;2.55;;;20.40;1.00;;;;;;5029324;28;20430;-85
2023/09/21 08:22:53;;;;;;;3.10;2.80;;;20.50;1.00;;;;;;5037443;28;20398;-84
2023/09/21 08:25:19;;;;;;;3.00;2.30;;;20.60;1.00;;;;;;4993876;28;20394;-84
2023/09/21 08:27:46;;;;;;;2.30;2.10;;;21.10;1.00;;;;;;5008864;28;20407;-85
2023/09/21 08:30:12;;;;;;;2.70;2.15;;;20.80;1.00;;;;;;5016440;28;20396;-84
2023/09/21 08:32:39;;;;;;;2.65;2.25;;;20.80;1.00;;;;;;5015131;28;20403;-84
2023/09/21 08:35:05;;;;;;;3.10;2.40;;;20.90;1.00;;;;;;5024321;28;20468;-85
2023/09/21 08:37:31;;;;;;;3.10;2.30;;;21.10;1.00;;;;;;5009313;28;20402;-84
2023/09/21 08:39:57;;;;;;;2.80;2.40;;;21.30;1.00;;;;;;4998005;28;20425;-85
2023/09/21 08:42:23;;;;;;;2.30;2.10;;;21.40;1.00;;;;;;4993942;28;20422;-84
2023/09/21 08:44:49;;;;;;;6.20;2.60;;;21.50;1.00;;;;;;5016789;23;20771;-85
2023/09/21 08:47:15;;;;;;;2.80;2.20;;;21.70;1.00;;;;;;5039977;28;20391;-85
2023/09/21 08:49:47;;;;;;;2.20;2.00;;;21.80;1.00;;;;;;5038770;28;20375;-85
2023/09/21 08:52:13;;;;;;;3.20;2.20;;;21.90;1.00;;;;;;5040082;28;20413;-82
2023/09/21 08:54:40;;;;;;;3.03;1.95;;;21.90;1.00;;;;;;5036081;28;20478;-84
2023/09/21 08:57:08;;;;;;;2.30;2.10;;;21.90;1.00;;;;;;5019031;28;20400;-84
2023/09/21 08:59:37;;;;;;;3.22;2.15;;;22.00;1.00;;;;;;5024886;28;20400;-83
2023/09/21 09:02:02;;;;;;;2.30;2.10;;;22.10;1.00;;;;;;5027395;28;20420;-85
2023/09/21 09:04:29;;;;;;;3.30;2.40;;;22.20;1.00;;;;;;5029019;28;20393;-83
2023/09/21 09:06:54;;;;;;;3.17;2.10;;;22.40;1.00;;;;;;5030529;28;20396;-84
2023/09/21 09:09:20;;;;;;;3.10;2.03;;;22.50;1.00;;;;;;5025729;28;20446;-84
2023/09/21 09:11:46;;;;;;;2.30;2.10;;;22.50;1.00;;;;;;5022613;28;20784;-84
2023/09/21 09:14:14;;;;;;;2.80;2.20;;;22.60;1.00;;;;;;5021680;28;20405;-85
2023/09/21 09:16:40;;;;;;;2.40;1.80;;;22.70;1.00;;;;;;5021961;28;20428;-85
2023/09/21 09:19:05;;;;;;;3.33;2.23;;;22.60;1.00;;;;;;5019994;28;20392;-85
2023/09/21 09:21:31;;;;;;;2.33;2.13;;;22.90;1.00;;;;;;5035307;28;20391;-83
2023/09/21 09:23:57;;;;;;;2.10;1.70;;;23.30;1.00;;;;;;5034960;28;20391;-84
2023/09/21 09:26:23;;;;;;;2.10;1.80;;;23.10;1.00;;;;;;5030924;28;20408;-84
2023/09/21 09:28:48;;;;;;;1.70;1.50;;;23.30;1.00;;;;;;5017332;28;20474;-84
2023/09/21 09:31:17;;;;;;;2.30;1.57;;;23.40;1.00;;;;;;5017780;28;20464;-84
2023/09/21 09:33:45;;;;;;;1.27;1.07;;;23.50;1.00;;;;;;5016774;28;20458;-83
2023/09/21 09:36:11;;;;;;;1.52;1.42;;;23.70;1.00;;;;;;5017962;28;20396;-83
2023/09/21 09:38:37;;;;;;;1.60;1.50;;;23.90;1.00;;;;;;5017096;28;20385;-82
2023/09/21 09:41:06;;;;;;;2.38;1.23;;;23.80;1.00;;;;;;5018474;28;20667;-83
2023/09/21 09:43:37;;;;;;;1.92;1.20;;;23.90;1.00;;;;;;5026708;28;20396;-81
2023/09/21 09:46:05;;;;;;;1.60;0.80;;;24.20;1.00;;;;;;5025339;28;20761;-83
2023/09/21 09:48:32;;;;;;;1.20;1.00;;;24.30;1.00;;;;;;5021859;28;20447;-84
2023/09/21 09:51:05;;;;;;;1.50;0.80;;;24.40;1.00;;;;;;5016775;28;20385;-83
2023/09/21 09:53:34;;;;;;;1.40;0.90;;;24.50;1.00;;;;;;5018952;28;20448;-83
2023/09/21 09:56:08;;;;;;;2.00;0.80;;;24.80;1.00;;;;;;5018388;28;20400;-84
2023/09/21 09:58:36;;;;;;;1.30;0.75;;;24.70;1.00;;;;;;5018095;28;20912;-84
2023/09/21 10:01:03;;;;;;;2.10;0.90;;;24.50;1.00;;;;;;5016812;28;20392;-84
2023/09/21 10:03:32;;;;;;;1.10;0.80;;;24.60;1.00;;;;;;5016669;28;20455;-84
2023/09/21 10:06:00;;;;;;;2.00;1.20;;;24.60;1.00;;;;;;5016913;28;20397;-84
2023/09/21 10:08:26;;;;;;;1.50;1.10;;;24.80;1.00;;;;;;5016899;28;20396;-84
2023/09/21 10:10:55;;;;;;;2.60;1.20;;;24.90;1.00;;;;;;5017813;28;20780;-84
2023/09/21 10:13:26;;;;;;;2.30;0.90;;;25.00;1.00;;;;;;5014596;28;20447;-83
2023/09/21 10:16:01;;;;;;;1.38;0.70;;;25.00;1.00;;;;;;5018673;28;20404;-82
2023/09/21 10:18:37;;;;;;;1.50;0.90;;;25.00;1.00;;;;;;4995491;28;20391;-84
2023/09/21 10:21:29;;;;;;;1.00;0.70;;;24.90;1.00;;;;;;5025572;28;20456;-84
2023/09/21 10:24:16;;;;;;;2.75;0.80;;;24.70;1.00;;;;;;5036817;28;20399;-84
2023/09/21 10:26:50;;;;;;;1.40;0.80;;;24.80;1.00;;;;;;5031685;28;20754;-83
2023/09/21 10:29:19;;;;;;;2.13;0.80;;;25.00;1.00;;;;;;5015849;28;20424;-83
2023/09/21 10:31:54;;;;;;;2.60;1.10;;;25.10;1.00;;;;;;5017452;28;20470;-84
2023/09/21 10:34:21;;;;;;;2.00;0.52;;;24.90;1.00;;;;;;5015622;28;20943;-82
2023/09/21 10:37:10;;;;;;;1.40;0.93;;;24.90;1.00;;;;;;5017506;28;20425;-82
2023/09/21 10:39:36;;;;;;;1.15;0.75;;;24.90;1.00;;;;;;5016284;28;20816;-82
2023/09/21 10:42:06;;;;;;;1.52;0.73;;;24.70;1.00;;;;;;5014316;28;20392;-82
2023/09/21 10:45:02;;;;;;;1.70;0.83;;;24.70;1.00;;;;;;5016153;28;20388;-82
2023/09/21 10:47:48;;;;;;;3.63;1.00;;;24.50;1.00;;;;;;5013663;28;20441;-82
2023/09/21 10:50:21;;;;;;;1.00;0.60;;;24.50;1.00;;;;;;5015169;28;20401;-82
2023/09/21 10:52:50;;;;;;;1.17;0.80;;;24.50;1.00;;;;;;5013854;28;20389;-83
2023/09/21 10:55:18;;;;;;;1.40;0.70;;;24.30;1.00;;;;;;5014673;28;20412;-82
2023/09/21 10:57:46;;;;;;;2.20;1.08;;;24.20;1.00;;;;;;5017915;28;20760;-83
2023/09/21 11:00:18;;;;;;;1.60;0.90;;;24.30;1.00;;;;;;5016847;28;20778;-81
2023/09/21 11:02:46;;;;;;;1.80;1.00;;;24.40;1.00;;;;;;5016254;28;20416;-83
2023/09/21 11:05:12;;;;;;;1.37;0.80;;;24.50;1.00;;;;;;5015005;28;20455;-83
2023/09/21 11:07:40;;;;;;;1.90;1.10;;;24.40;1.00;;;;;;5016589;28;20912;-82
2023/09/21 11:10:07;;;;;;;1.63;1.15;;;24.40;1.00;;;;;;5018343;28;20423;-82
2023/09/21 11:12:34;;;;;;;1.10;0.90;;;24.50;1.00;;;;;;5017046;28;20396;-82
2023/09/21 11:15:00;;;;;;;1.67;1.10;;;24.50;1.00;;;;;;5015802;28;20546;-82
2023/09/21 11:17:27;;;;;;;1.50;1.20;;;24.70;1.00;;;;;;5016321;28;20876;-82
2023/09/21 11:19:53;;;;;;;2.50;1.20;;;24.70;1.00;;;;;;5021899;28;20929;-83
2023/09/21 11:22:19;;;;;;;1.50;1.40;;;25.20;1.00;;;;;;5030408;28;20478;-82
2023/09/21 11:24:46;;;;;;;2.88;1.10;;;25.30;1.00;;;;;;5018749;28;20376;-83
2023/09/21 11:27:14;;;;;;;1.80;1.08;;;25.40;1.00;;;;;;5018042;28;20403;-83
2023/09/21 11:29:41;;;;;;;0.88;0.80;;;25.40;1.00;;;;;;5018895;28;20399;-82
2023/09/21 11:32:08;;;;;;;1.80;1.00;;;25.20;1.00;;;;;;5016717;28;20403;-82
2023/09/21 11:34:41;;;;;;;1.05;0.85;;;25.30;1.00;;;;;;5018589;28;20459;-82
2023/09/21 11:37:09;;;;;;;1.90;0.80;;;25.50;1.00;;;;;;5017818;28;20397;-83
2023/09/21 11:39:39;;;;;;;1.40;1.00;;;25.50;1.00;;;;;;5018867;28;20385;-82
2023/09/21 11:42:10;;;;;;;1.20;1.05;;;25.50;1.00;;;;;;5015342;28;20393;-82
2023/09/21 11:44:37;;;;;;;1.90;1.00;;;26.10;1.00;;;;;;5016571;28;20420;-82
2023/09/21 11:47:09;;;;;;;1.20;0.98;;;26.20;1.00;;;;;;5008654;28;20408;-82
2023/09/21 11:49:43;;;;;;;2.00;1.10;;;26.50;1.00;;;;;;5010362;28;20390;-83
2023/09/21 11:52:10;;;;;;;2.00;1.00;;;26.50;1.00;;;;;;5008451;28;20397;-82
2023/09/21 11:54:38;;;;;;;3.83;1.00;;;26.50;1.00;;;;;;5002510;28;20441;-84
2023/09/21 11:57:05;;;;;;;1.38;1.08;;;26.30;1.00;;;;;;5020470;28;20397;-84
2023/09/21 11:59:32;;;;;;;1.50;1.20;;;25.50;1.00;;;;;;5032461;28;20431;-83
2023/09/21 12:02:00;;;;;;;4.57;2.50;;;25.60;1.00;;;;;;5027592;28;20393;-84
2023/09/21 12:04:29;;;;;;;5.55;3.70;;;25.60;1.00;;;;;;5021871;28;20408;-84
2023/09/21 12:06:55;;;;;;;4.10;2.00;;;25.60;1.00;;;;;;5015901;28;20940;-84
2023/09/21 12:09:21;;;;;;;1.55;1.10;;;25.70;1.00;;;;;;5024195;28;20404;-83
2023/09/21 12:11:48;;;;;;;1.93;1.37;;;25.80;1.00;;;;;;5033315;28;20427;-84
2023/09/21 12:14:14;;;;;;;0.83;0.70;;;25.90;1.00;;;;;;5026633;28;20446;-84
2023/09/21 12:16:40;;;;;;;1.15;0.90;;;26.00;1.00;;;;;;5015796;28;20753;-84
2023/09/21 12:19:08;;;;;;;1.13;0.90;;;26.40;1.00;;;;;;5011335;28;20757;-84
2023/09/21 12:21:34;;;;;;;1.70;1.30;;;26.70;1.00;;;;;;5025522;28;20480;-84
2023/09/21 12:23:59;;;;;;;2.55;1.15;;;26.90;1.00;;;;;;5011994;28;20424;-83
2023/09/21 12:26:25;;;;;;;1.60;1.00;;;27.10;1.00;;;;;;5010781;28;20393;-84
2023/09/21 12:28:53;;;;;;;1.30;1.00;;;27.40;1.00;;;;;;5011831;28;20876;-85
2023/09/21 12:31:19;;;;;;;1.70;0.90;;;27.50;1.00;;;;;;5011964;28;20772;-87
2023/09/21 12:33:45;;;;;;;1.00;0.70;;;27.90;1.00;;;;;;5010688;28;20484;-87
2023/09/21 12:36:14;;;;;;;1.40;0.73;;;27.90;1.00;;;;;;5010681;28;20477;-88
2023/09/21 12:38:40;;;;;;;2.10;1.10;;;27.20;1.00;;;;;;5010735;28;20484;-88
2023/09/21 12:41:09;;;;;;;2.70;1.10;;;27.20;1.00;;;;;;5011817;28;20385;-87
2023/09/21 12:43:38;;;;;;;1.00;0.80;;;27.40;1.00;;;;;;5011149;28;20425;-88
2023/09/21 12:46:04;;;;;;;1.30;1.10;;;27.50;1.00;;;;;;5010952;28;20912;-90
2023/09/21 12:48:29;;;;;;;1.67;0.80;;;27.40;1.00;;;;;;5011071;28;20940;-87
2023/09/21 12:50:55;;;;;;;1.47;0.87;;;27.20;1.00;;;;;;5011482;28;20392;-88
2023/09/21 12:53:21;;;;;;;1.13;0.90;;;27.10;1.00;;;;;;5017054;28;20389;-89
2023/09/21 12:55:46;;;;;;;1.37;0.83;;;27.00;1.00;;;;;;5036083;28;20413;-87
2023/09/21 12:58:12;;;;;;;1.77;0.90;;;27.10;1.00;;;;;;5035270;28;20412;-87
2023/09/21 13:00:40;;;;;;;1.00;0.90;;;26.70;1.00;;;;;;5034871;28;20726;-87